Time;durP1;ratioP1;P1;durP2;ratioP2;P2;SDS_P1;SDS_P2;PMS_P1;PMS_P2;Temp;Humidity;BMP_temperature;BMP_pressure;BME280_temperature;BME280_humidity;BME280_pressure;Samples;Min_cycle;Max_cycle;Signal;HPM_P1;HPM_P2
2021/01/24 00:00:30;;;;;;;44.72;25.63;;;204.80;2176.00;;;;;;5132818;27;20392;-74
2021/01/24 00:02:56;;;;;;;49.50;28.35;;;204.80;2201.60;;;;;;5134433;27;20102;-73
2021/01/24 00:05:23;;;;;;;43.35;23.52;;;204.80;2201.60;;;;;;5133142;27;20481;-73
2021/01/24 00:07:50;;;;;;;31.48;18.58;;;204.80;2201.60;;;;;;5134597;27;20140;-73
2021/01/24 00:10:19;;;;;;;28.67;16.92;;;204.90;2176.00;;;;;;5132831;27;20027;-73
2021/01/24 00:12:45;;;;;;;31.30;18.23;;;204.90;2150.40;;;;;;5132959;28;20501;-75
2021/01/24 00:15:11;;;;;;;37.38;21.02;;;204.80;2176.00;;;;;;5134230;27;20094;-73
2021/01/24 00:17:37;;;;;;;42.90;26.15;;;204.80;2150.40;;;;;;5134438;27;20502;-75
2021/01/24 00:20:04;;;;;;;28.13;17.15;;;204.80;2176.00;;;;;;5132907;28;20020;-73
2021/01/24 00:22:30;;;;;;;29.23;15.10;;;180.10;2176.00;;;;;;5132854;28;20023;-73
2021/01/24 00:24:56;;;;;;;21.88;12.75;;;180.00;2176.00;;;;;;5132796;28;20106;-74
2021/01/24 00:27:23;;;;;;;19.75;12.75;;;180.00;2201.60;;;;;;5134181;27;20027;-74
2021/01/24 00:29:51;;;;;;;21.30;11.95;;;180.00;2176.00;;;;;;5134174;27;20024;-74
2021/01/24 00:32:18;;;;;;;19.60;11.35;;;179.90;2201.60;;;;;;5132678;28;20083;-74
2021/01/24 00:34:44;;;;;;;19.58;10.20;;;179.90;2201.60;;;;;;5133995;27;20019;-74
2021/01/24 00:37:11;;;;;;;17.42;9.95;;;179.90;2201.60;;;;;;5132732;28;20027;-74
2021/01/24 00:39:37;;;;;;;14.25;8.90;;;180.00;2176.00;;;;;;5132688;28;20072;-73
2021/01/24 00:42:04;;;;;;;17.25;7.53;;;179.90;2201.60;;;;;;5134121;27;20413;-74
2021/01/24 00:44:29;;;;;;;13.98;7.50;;;179.80;2201.60;;;;;;5133970;27;20023;-73
2021/01/24 00:46:55;;;;;;;11.95;6.43;;;179.60;2201.60;;;;;;5133956;27;20379;-73
2021/01/24 00:49:21;;;;;;;12.00;7.07;;;179.60;2201.60;;;;;;5132636;28;20106;-75
2021/01/24 00:51:47;;;;;;;9.65;4.93;;;179.60;2201.60;;;;;;5132576;28;20035;-74
2021/01/24 00:54:13;;;;;;;10.48;5.43;;;179.50;2201.60;;;;;;5133944;27;20479;-74
2021/01/24 00:56:39;;;;;;;8.68;5.47;;;179.60;2201.60;;;;;;5133999;27;20023;-74
2021/01/24 00:59:05;;;;;;;8.07;4.55;;;179.60;2176.00;;;;;;5133630;27;20409;-74
2021/01/24 01:01:31;;;;;;;8.73;5.10;;;179.60;2176.00;;;;;;5132558;28;20034;-73
2021/01/24 01:03:57;;;;;;;10.25;5.63;;;179.70;2176.00;;;;;;5132735;27;20022;-74
2021/01/24 01:06:23;;;;;;;11.25;5.55;;;179.70;2176.00;;;;;;5136381;27;20491;-74
2021/01/24 01:08:48;;;;;;;13.77;5.53;;;179.60;2176.00;;;;;;5136316;27;20019;-73
2021/01/24 01:11:14;;;;;;;8.10;4.95;;;179.60;2176.00;;;;;;5136178;27;20035;-73
2021/01/24 01:13:40;;;;;;;10.80;4.45;;;179.50;2176.00;;;;;;5137466;27;20076;-73
2021/01/24 01:16:06;;;;;;;6.68;3.85;;;179.60;2176.00;;;;;;5136214;27;20095;-75
2021/01/24 01:18:32;;;;;;;6.65;4.05;;;179.60;2176.00;;;;;;5137344;27;20029;-73
2021/01/24 01:20:58;;;;;;;7.25;3.92;;;179.50;2176.00;;;;;;5137345;27;20050;-74
2021/01/24 01:23:25;;;;;;;8.25;3.67;;;179.40;2201.60;;;;;;5137351;27;20024;-73
2021/01/24 01:25:52;;;;;;;6.10;3.50;;;179.40;2201.60;;;;;;5137230;27;20084;-74
2021/01/24 01:28:18;;;;;;;7.70;3.72;;;179.70;2201.60;;;;;;5137508;27;20015;-74
2021/01/24 01:30:44;;;;;;;8.35;4.85;;;179.40;2201.60;;;;;;5137095;27;20023;-75
2021/01/24 01:33:10;;;;;;;10.00;5.10;;;179.40;2201.60;;;;;;5135759;27;20027;-74
2021/01/24 01:35:36;;;;;;;9.00;4.85;;;179.40;2201.60;;;;;;5135877;27;20023;-74
2021/01/24 01:38:02;;;;;;;9.30;4.75;;;179.40;2201.60;;;;;;5137083;27;20034;-73
2021/01/24 01:40:28;;;;;;;8.05;4.80;;;179.30;2176.00;;;;;;5137022;27;20156;-74
2021/01/24 01:42:56;;;;;;;7.15;4.45;;;179.30;2176.00;;;;;;5136991;27;20106;-74
2021/01/24 01:45:23;;;;;;;9.38;4.20;;;179.30;2176.00;;;;;;5136915;27;20019;-74
2021/01/24 01:47:49;;;;;;;7.35;3.85;;;179.30;2176.00;;;;;;5135528;27;20459;-74
2021/01/24 01:50:18;;;;;;;7.03;3.60;;;179.30;2176.00;;;;;;5135410;27;20031;-73
2021/01/24 01:52:44;;;;;;;4.70;2.80;;;179.30;2176.00;;;;;;5136846;27;20076;-75
2021/01/24 01:55:11;;;;;;;7.18;3.33;;;179.20;2176.00;;;;;;5136686;27;20027;-75
2021/01/24 01:57:37;;;;;;;5.80;3.00;;;154.50;2176.00;;;;;;5135312;27;20122;-74
2021/01/24 02:00:05;;;;;;;6.20;3.20;;;154.40;2201.60;;;;;;5135155;27;20129;-73
2021/01/24 02:03:08;;;;;;;6.57;3.38;;;154.40;2201.60;;;;;;5135332;27;20111;-73
2021/01/24 02:05:41;;;;;;;6.00;3.10;;;154.40;2176.00;;;;;;5135217;27;20030;-74
2021/01/24 02:08:13;;;;;;;7.97;3.38;;;154.50;2176.00;;;;;;5136554;27;20539;-75
2021/01/24 02:10:52;;;;;;;6.65;3.22;;;154.50;2176.00;;;;;;5136405;27;20046;-74
2021/01/24 02:13:44;;;;;;;7.78;3.60;;;179.20;2176.00;;;;;;5136417;27;20024;-74
2021/01/24 02:16:11;;;;;;;4.85;2.70;;;154.50;2176.00;;;;;;5106467;27;20460;-73
2021/01/24 02:18:40;;;;;;;6.93;3.67;;;154.50;2176.00;;;;;;5136261;27;20079;-74
2021/01/24 02:21:31;;;;;;;8.38;4.25;;;154.50;2176.00;;;;;;5136236;27;20027;-75
2021/01/24 02:24:01;;;;;;;8.55;3.85;;;154.50;2176.00;;;;;;5136538;27;20165;-74
2021/01/24 02:26:49;;;;;;;11.32;4.63;;;154.50;2176.00;;;;;;5136122;27;20023;-74
2021/01/24 02:29:24;;;;;;;7.88;3.92;;;154.50;2176.00;;;;;;5134805;27;20387;-74
2021/01/24 02:31:51;;;;;;;7.32;3.40;;;154.50;2176.00;;;;;;5135900;27;20031;-73
2021/01/24 02:34:21;;;;;;;6.22;3.20;;;154.50;2176.00;;;;;;5134686;27;20121;-74
2021/01/24 02:36:48;;;;;;;9.05;3.60;;;154.40;2176.00;;;;;;5135930;27;20019;-74
2021/01/24 02:39:14;;;;;;;6.85;3.30;;;154.50;2176.00;;;;;;5135861;27;20027;-75
2021/01/24 02:41:42;;;;;;;5.32;2.97;;;154.50;2176.00;;;;;;5135904;27;20051;-74
2021/01/24 02:44:09;;;;;;;7.20;4.60;;;154.50;2176.00;;;;;;5135745;27;20030;-73
2021/01/24 02:46:36;;;;;;;10.93;5.07;;;154.40;2176.00;;;;;;5134448;27;20027;-74
2021/01/24 02:49:04;;;;;;;9.90;4.82;;;154.30;2176.00;;;;;;5135636;27;20061;-74
2021/01/24 02:51:30;;;;;;;9.00;4.30;;;154.20;2201.60;;;;;;5135521;27;20039;-74
2021/01/24 02:53:57;;;;;;;5.90;3.47;;;154.20;2201.60;;;;;;5134273;27;20023;-74
2021/01/24 02:56:24;;;;;;;6.88;3.00;;;154.20;2201.60;;;;;;5135547;27;20076;-73
2021/01/24 02:58:51;;;;;;;6.28;3.30;;;154.10;2201.60;;;;;;5133931;27;20027;-73
2021/01/24 03:01:17;;;;;;;9.02;3.40;;;154.00;2201.60;;;;;;5134137;27;20464;-74
2021/01/24 03:03:43;;;;;;;10.02;4.28;;;154.10;2201.60;;;;;;5134027;27;20105;-73
2021/01/24 03:06:11;;;;;;;10.00;5.18;;;154.20;2176.00;;;;;;5135655;27;20035;-74
2021/01/24 03:08:38;;;;;;;6.13;3.58;;;154.30;2176.00;;;;;;5135275;27;20023;-73
2021/01/24 03:11:07;;;;;;;12.25;5.25;;;154.20;2176.00;;;;;;5135127;27;20482;-73
2021/01/24 03:13:50;;;;;;;12.07;6.15;;;154.10;2176.00;;;;;;5133840;27;20054;-73
2021/01/24 03:16:17;;;;;;;7.10;3.65;;;154.00;2201.60;;;;;;5135248;27;20468;-75
2021/01/24 03:18:45;;;;;;;4.88;2.75;;;153.80;2252.80;;;;;;5133731;27;20472;-75
2021/01/24 03:21:13;;;;;;;7.47;4.07;;;153.70;2252.80;;;;;;5135042;27;20057;-73
2021/01/24 03:23:40;;;;;;;6.00;2.40;;;153.70;2252.80;;;;;;5135016;27;20062;-73
2021/01/24 03:26:07;;;;;;;6.40;3.00;;;153.70;2252.80;;;;;;5135189;27;20024;-75
2021/01/24 03:28:37;;;;;;;6.80;3.13;;;153.70;2252.80;;;;;;5132782;27;20023;-73
2021/01/24 03:31:05;;;;;;;6.95;3.05;;;153.80;2252.80;;;;;;5134656;27;20031;-73
2021/01/24 03:33:35;;;;;;;8.07;3.35;;;153.70;2252.80;;;;;;5134503;27;20018;-73
2021/01/24 03:36:02;;;;;;;10.63;3.42;;;153.90;2227.20;;;;;;5134657;27;20023;-73
2021/01/24 03:38:28;;;;;;;7.00;3.47;;;153.90;2227.20;;;;;;5134556;27;20026;-73
2021/01/24 03:40:54;;;;;;;4.45;2.50;;;153.90;2227.20;;;;;;5133247;27;20023;-73
2021/01/24 03:43:20;;;;;;;5.65;3.10;;;154.00;2227.20;;;;;;5134575;27;20115;-73
2021/01/24 03:45:46;;;;;;;5.95;3.17;;;153.90;2201.60;;;;;;5133537;27;20458;-74
2021/01/24 03:48:12;;;;;;;5.32;2.72;;;154.00;2227.20;;;;;;5133435;27;20055;-73
2021/01/24 03:50:38;;;;;;;8.18;3.05;;;153.90;2227.20;;;;;;5133431;27;20111;-73
2021/01/24 03:53:04;;;;;;;8.57;3.78;;;153.80;2252.80;;;;;;5133366;27;20034;-74
2021/01/24 03:55:29;;;;;;;6.75;3.22;;;153.80;2252.80;;;;;;5133389;27;20019;-73
2021/01/24 03:57:55;;;;;;;8.63;4.90;;;153.90;2252.80;;;;;;5133314;27;20029;-74
2021/01/24 04:00:22;;;;;;;8.23;3.53;;;153.90;2252.80;;;;;;5134346;27;20496;-73
2021/01/24 04:02:47;;;;;;;6.78;3.13;;;153.90;2252.80;;;;;;5133276;27;20394;-74
2021/01/24 04:05:14;;;;;;;6.53;2.72;;;153.90;2227.20;;;;;;5134516;27;20011;-74
2021/01/24 04:07:40;;;;;;;6.70;2.88;;;153.70;2252.80;;;;;;5134518;27;20100;-73
2021/01/24 04:10:07;;;;;;;4.77;2.60;;;153.70;2252.80;;;;;;5133171;27;20475;-73
2021/01/24 04:12:34;;;;;;;6.18;3.35;;;153.70;2252.80;;;;;;5133019;28;20039;-73
2021/01/24 04:15:00;;;;;;;8.63;4.23;;;153.70;2252.80;;;;;;5133114;28;20111;-73
2021/01/24 04:17:26;;;;;;;5.80;3.58;;;153.70;2252.80;;;;;;5133088;28;20475;-73
2021/01/24 04:19:52;;;;;;;12.95;3.80;;;153.90;2227.20;;;;;;5133098;28;20041;-73
2021/01/24 04:22:18;;;;;;;6.15;3.00;;;153.80;2227.20;;;;;;5134449;27;20027;-72
2021/01/24 04:24:44;;;;;;;8.23;3.20;;;153.80;2227.20;;;;;;5133008;28;20024;-73
2021/01/24 04:27:10;;;;;;;9.45;3.75;;;153.80;2227.20;;;;;;5133019;28;20027;-74
2021/01/24 04:29:36;;;;;;;13.85;4.90;;;153.90;2227.20;;;;;;5132976;28;20084;-73
2021/01/24 04:32:02;;;;;;;16.48;5.85;;;153.90;2201.60;;;;;;5132964;28;20042;-74
2021/01/24 04:34:28;;;;;;;14.73;5.50;;;153.90;2201.60;;;;;;5132956;28;20045;-73
2021/01/24 04:36:54;;;;;;;15.93;5.75;;;153.90;2201.60;;;;;;5134226;27;20027;-73
2021/01/24 04:39:20;;;;;;;11.13;5.38;;;153.80;2201.60;;;;;;5133837;27;20019;-73
2021/01/24 04:41:48;;;;;;;12.45;4.90;;;153.90;2201.60;;;;;;5138337;27;20033;-74
2021/01/24 04:44:15;;;;;;;16.90;5.20;;;153.80;2201.60;;;;;;5138228;27;20023;-73
2021/01/24 04:46:44;;;;;;;12.70;5.28;;;153.80;2201.60;;;;;;5136923;27;20076;-73
2021/01/24 04:49:11;;;;;;;12.80;5.47;;;153.90;2201.60;;;;;;5136872;27;20038;-73
2021/01/24 04:51:39;;;;;;;13.63;6.60;;;154.00;2201.60;;;;;;5138092;27;20433;-73
2021/01/24 04:54:06;;;;;;;16.00;6.90;;;154.00;2176.00;;;;;;5136822;27;20019;-73
2021/01/24 04:56:36;;;;;;;10.68;5.70;;;154.00;2176.00;;;;;;5136706;27;20042;-73
2021/01/24 04:59:03;;;;;;;15.35;4.60;;;154.10;2176.00;;;;;;5137797;27;20069;-73
2021/01/24 05:01:31;;;;;;;13.20;6.43;;;154.00;2176.00;;;;;;5138241;27;20099;-74
2021/01/24 05:03:58;;;;;;;9.52;4.70;;;154.10;2176.00;;;;;;5136609;27;20023;-73
2021/01/24 05:06:24;;;;;;;7.95;4.30;;;154.10;2176.00;;;;;;5137839;27;20039;-73
2021/01/24 05:08:49;;;;;;;9.53;4.83;;;154.20;2176.00;;;;;;5138062;27;20023;-73
2021/01/24 05:11:15;;;;;;;9.00;4.85;;;154.20;2150.40;;;;;;5136414;27;20034;-74
2021/01/24 05:13:41;;;;;;;8.95;4.50;;;154.30;2150.40;;;;;;5137671;27;20052;-73
2021/01/24 05:16:08;;;;;;;11.10;4.80;;;154.30;2150.40;;;;;;5136388;27;20081;-73
2021/01/24 05:18:34;;;;;;;9.40;4.90;;;154.40;2150.40;;;;;;5136342;27;20019;-73
2021/01/24 05:21:03;;;;;;;18.38;7.32;;;179.20;2124.80;;;;;;5136337;27;20041;-73
2021/01/24 05:23:29;;;;;;;16.60;7.80;;;154.40;2124.80;;;;;;5137581;27;20531;-74
2021/01/24 05:25:57;;;;;;;12.35;5.95;;;154.50;2150.40;;;;;;5137488;27;20023;-73
2021/01/24 05:28:26;;;;;;;9.27;4.40;;;154.40;2150.40;;;;;;5136234;27;20031;-73
2021/01/24 05:31:04;;;;;;;9.50;3.97;;;154.40;2176.00;;;;;;5137261;27;20031;-73
2021/01/24 05:33:30;;;;;;;10.60;5.28;;;154.50;2176.00;;;;;;5136075;27;20122;-74
2021/01/24 05:35:56;;;;;;;15.68;6.22;;;154.50;2150.40;;;;;;5137245;27;20050;-73
2021/01/24 05:38:27;;;;;;;15.18;7.32;;;154.50;2150.40;;;;;;5137558;27;20024;-73
2021/01/24 05:40:54;;;;;;;13.32;6.53;;;154.50;2176.00;;;;;;5135967;27;20019;-73
2021/01/24 05:43:23;;;;;;;12.65;5.45;;;154.50;2176.00;;;;;;5135838;27;20076;-73
2021/01/24 05:45:50;;;;;;;13.25;5.65;;;154.50;2176.00;;;;;;5135795;27;20072;-73
2021/01/24 05:48:17;;;;;;;11.70;6.40;;;154.50;2176.00;;;;;;5137068;27;20023;-73
2021/01/24 05:50:45;;;;;;;17.20;8.23;;;179.20;2150.40;;;;;;5136068;27;20106;-73
2021/01/24 05:53:16;;;;;;;9.65;4.95;;;179.20;2150.40;;;;;;5135604;27;20051;-73
2021/01/24 05:55:43;;;;;;;11.73;4.47;;;179.20;2150.40;;;;;;5137239;27;20456;-73
2021/01/24 05:58:19;;;;;;;10.32;5.60;;;154.50;2150.40;;;;;;5136848;27;20107;-73
2021/01/24 06:00:46;;;;;;;9.70;4.40;;;179.20;2150.40;;;;;;5136612;27;20043;-74
2021/01/24 06:03:13;;;;;;;10.20;5.07;;;179.20;2150.40;;;;;;5135438;27;20072;-73
2021/01/24 06:05:40;;;;;;;11.30;4.78;;;154.50;2150.40;;;;;;5136732;27;20035;-74
2021/01/24 06:08:08;;;;;;;8.55;4.32;;;179.20;2150.40;;;;;;5135451;27;20027;-73
2021/01/24 06:10:34;;;;;;;12.20;5.03;;;179.20;2150.40;;;;;;5136554;27;20468;-73
2021/01/24 06:13:01;;;;;;;7.55;3.85;;;179.20;2150.40;;;;;;5136617;27;20068;-73
2021/01/24 06:15:31;;;;;;;9.30;3.90;;;179.30;2124.80;;;;;;5135326;27;20022;-74
2021/01/24 06:18:00;;;;;;;10.13;4.82;;;179.30;2124.80;;;;;;5135188;27;20416;-73
2021/01/24 06:20:39;;;;;;;41.42;12.32;;;179.20;2150.40;;;;;;5135125;27;20015;-73
2021/01/24 06:23:14;;;;;;;38.58;13.75;;;179.20;2150.40;;;;;;5135121;27;20015;-73
2021/01/24 06:25:44;;;;;;;25.90;11.82;;;179.20;2150.40;;;;;;5135065;27;20027;-73
2021/01/24 06:28:26;;;;;;;28.83;10.35;;;179.30;2124.80;;;;;;5136312;27;20498;-73
2021/01/24 06:30:52;;;;;;;16.52;7.78;;;179.30;2124.80;;;;;;5136438;27;20031;-73
2021/01/24 06:33:19;;;;;;;33.75;14.60;;;179.30;2124.80;;;;;;5136197;27;20140;-73
2021/01/24 06:35:48;;;;;;;52.92;24.58;;;179.30;2124.80;;;;;;5136141;27;20119;-73
2021/01/24 06:38:35;;;;;;;66.10;31.33;;;179.40;2124.80;;;;;;5136059;27;20471;-74
2021/01/24 06:41:12;;;;;;;75.85;37.58;;;179.50;2099.20;;;;;;5136240;27;20030;-74
2021/01/24 06:43:45;;;;;;;69.15;34.17;;;179.50;2099.20;;;;;;5136254;27;20076;-74
2021/01/24 06:46:32;;;;;;;22.33;11.27;;;179.60;2099.20;;;;;;5135986;27;20467;-73
2021/01/24 06:48:58;;;;;;;20.42;13.40;;;179.60;2099.20;;;;;;5134550;27;20050;-74
2021/01/24 06:51:30;;;;;;;10.45;6.97;;;179.50;2124.80;;;;;;5134400;27;20486;-73
2021/01/24 06:53:56;;;;;;;8.88;4.88;;;179.50;2124.80;;;;;;5134543;27;20050;-73
2021/01/24 06:56:22;;;;;;;11.75;6.07;;;179.50;2124.80;;;;;;5135715;27;20513;-73
2021/01/24 06:58:51;;;;;;;15.93;6.57;;;179.50;2124.80;;;;;;5134122;27;20035;-73
2021/01/24 07:01:43;;;;;;;11.82;5.03;;;179.50;2124.80;;;;;;5135611;27;20027;-73
2021/01/24 07:04:21;;;;;;;6.32;3.58;;;179.50;2124.80;;;;;;5130794;27;20039;-73
2021/01/24 07:06:56;;;;;;;20.85;9.27;;;179.60;2124.80;;;;;;5135498;27;20027;-73
2021/01/24 07:09:25;;;;;;;67.50;26.73;;;179.50;2124.80;;;;;;5135427;27;20019;-73
2021/01/24 07:11:59;;;;;;;47.85;21.17;;;179.50;2150.40;;;;;;5134067;27;20026;-73
2021/01/24 07:14:37;;;;;;;54.00;24.27;;;179.60;2150.40;;;;;;5134144;27;20026;-73
2021/01/24 07:17:09;;;;;;;57.53;29.98;;;179.60;2124.80;;;;;;5135610;27;20026;-73
2021/01/24 07:19:48;;;;;;;53.90;28.30;;;179.70;2150.40;;;;;;5135347;27;20026;-73
2021/01/24 07:22:19;;;;;;;48.60;24.40;;;179.80;2150.40;;;;;;5135286;27;20095;-73
2021/01/24 07:24:46;;;;;;;55.53;28.13;;;179.80;2124.80;;;;;;5133930;27;20019;-73
2021/01/24 07:27:14;;;;;;;39.92;23.40;;;179.80;2124.80;;;;;;5133777;27;20019;-73
2021/01/24 07:29:41;;;;;;;36.17;20.63;;;179.90;2124.80;;;;;;5133784;27;20084;-73
2021/01/24 07:32:09;;;;;;;31.52;17.60;;;179.90;2124.80;;;;;;5134963;27;20110;-73
2021/01/24 07:34:35;;;;;;;27.38;15.50;;;179.90;2124.80;;;;;;5134999;27;20103;-73
2021/01/24 07:37:03;;;;;;;27.08;14.70;;;179.90;2124.80;;;;;;5134955;27;20020;-73
2021/01/24 07:39:30;;;;;;;28.77;15.35;;;179.90;2150.40;;;;;;5134963;27;20015;-73
2021/01/24 07:41:57;;;;;;;30.25;16.52;;;179.90;2150.40;;;;;;5134867;27;20088;-73
2021/01/24 07:44:23;;;;;;;37.80;18.73;;;179.90;2150.40;;;;;;5133528;27;20467;-73
2021/01/24 07:46:49;;;;;;;43.40;21.98;;;180.00;2150.40;;;;;;5134830;27;20027;-73
2021/01/24 07:49:15;;;;;;;36.63;21.33;;;180.00;2124.80;;;;;;5134812;27;20127;-73
2021/01/24 07:51:42;;;;;;;40.47;21.67;;;180.10;2124.80;;;;;;5133516;27;20045;-73
2021/01/24 07:54:08;;;;;;;57.67;30.88;;;180.00;2124.80;;;;;;5134642;27;20077;-74
2021/01/24 07:56:35;;;;;;;36.42;21.90;;;204.80;2124.80;;;;;;5133386;27;20035;-73
2021/01/24 07:59:02;;;;;;;41.53;22.92;;;204.90;2099.20;;;;;;5133131;27;20051;-73
2021/01/24 08:01:28;;;;;;;42.05;22.33;;;204.90;2099.20;;;;;;5134880;27;20034;-73
2021/01/24 08:03:54;;;;;;;42.88;24.52;;;204.90;2073.60;;;;;;5134594;27;20098;-73
2021/01/24 08:06:20;;;;;;;47.00;25.08;;;205.00;2099.20;;;;;;5134457;27;20069;-74
2021/01/24 08:08:47;;;;;;;44.05;23.75;;;205.00;2099.20;;;;;;5133270;27;20025;-73
2021/01/24 08:11:14;;;;;;;51.45;27.02;;;205.10;2099.20;;;;;;5133075;27;20035;-73
2021/01/24 08:13:41;;;;;;;45.60;25.08;;;205.20;2073.60;;;;;;5134075;27;20031;-73
2021/01/24 08:16:23;;;;;;;38.08;20.02;;;205.20;2073.60;;;;;;5133084;28;20036;-73
2021/01/24 08:18:52;;;;;;;40.00;21.23;;;205.30;2073.60;;;;;;5133113;28;20159;-75
2021/01/24 08:21:18;;;;;;;39.40;23.02;;;205.40;2073.60;;;;;;5133050;28;20544;-75
2021/01/24 08:23:49;;;;;;;41.08;21.70;;;205.50;2048.00;;;;;;5134324;27;20102;-73
2021/01/24 08:26:16;;;;;;;37.63;22.25;;;205.70;2048.00;;;;;;5133086;28;20497;-73
2021/01/24 08:28:43;;;;;;;217.05;96.57;;;230.40;2048.00;;;;;;5133020;28;20076;-73
2021/01/24 08:31:09;;;;;;;57.35;25.52;;;230.40;2048.00;;;;;;5132887;28;20046;-74
2021/01/24 08:33:37;;;;;;;18.45;9.18;;;230.60;2022.40;;;;;;5132934;28;20118;-74
2021/01/24 08:36:16;;;;;;;20.52;9.82;;;230.60;2022.40;;;;;;5132986;28;20072;-74
2021/01/24 08:38:43;;;;;;;19.23;9.13;;;230.60;2022.40;;;;;;5134502;27;20031;-74
2021/01/24 08:41:11;;;;;;;12.10;6.47;;;230.70;2022.40;;;;;;5134434;27;20027;-74
2021/01/24 08:43:38;;;;;;;42.13;26.48;;;230.80;2022.40;;;;;;5132916;28;20031;-74
2021/01/24 08:46:20;;;;;;;13.73;7.53;;;230.90;1971.20;;;;;;5132864;28;20386;-73
2021/01/24 08:48:59;;;;;;;23.70;14.88;;;231.10;1920.00;;;;;;5132296;28;20031;-73
2021/01/24 08:51:25;;;;;;;24.90;13.90;;;231.30;1945.60;;;;;;5134018;27;20033;-76
2021/01/24 08:53:50;;;;;;;13.82;8.85;;;256.00;1894.40;;;;;;5132790;28;20110;-76
2021/01/24 08:56:22;;;;;;;14.73;8.70;;;256.10;1894.40;;;;;;5134379;27;20019;-75
2021/01/24 08:58:48;;;;;;;14.02;7.68;;;256.10;1868.80;;;;;;5133887;27;20068;-75
2021/01/24 09:01:14;;;;;;;13.15;6.93;;;256.30;1868.80;;;;;;5134069;27;20032;-75
2021/01/24 09:03:40;;;;;;;18.13;8.60;;;256.20;1868.80;;;;;;5134040;27;20019;-73
2021/01/24 09:06:16;;;;;;;16.42;8.75;;;256.30;1868.80;;;;;;5132713;28;20019;-75
2021/01/24 09:08:52;;;;;;;17.25;7.97;;;256.40;1843.20;;;;;;5133804;27;20080;-73
2021/01/24 09:11:19;;;;;;;11.88;5.78;;;256.50;1868.80;;;;;;5132579;28;20031;-74
2021/01/24 09:13:45;;;;;;;13.45;6.40;;;256.60;1817.60;;;;;;5132639;28;20028;-73
2021/01/24 09:16:11;;;;;;;52.90;27.08;;;256.80;1792.00;;;;;;5134112;27;20030;-74
2021/01/24 09:18:37;;;;;;;9.98;5.32;;;256.80;1792.00;;;;;;5133744;27;20027;-73
2021/01/24 09:21:04;;;;;;;15.50;5.68;;;256.90;1792.00;;;;;;5133806;27;20478;-74
2021/01/24 09:23:30;;;;;;;10.68;5.35;;;281.60;1817.60;;;;;;5133827;27;20023;-75
2021/01/24 09:25:57;;;;;;;12.43;5.38;;;281.60;1792.00;;;;;;5132612;27;20019;-74
2021/01/24 09:28:24;;;;;;;14.00;7.95;;;281.60;1792.00;;;;;;5136037;27;20031;-74
2021/01/24 09:30:50;;;;;;;8.10;4.03;;;281.60;1792.00;;;;;;5137116;27;20042;-74
2021/01/24 09:33:16;;;;;;;13.55;6.70;;;281.60;1792.00;;;;;;5136034;27;20023;-75
2021/01/24 09:35:42;;;;;;;13.15;6.55;;;281.70;1792.00;;;;;;5137214;27;20045;-74
2021/01/24 09:38:08;;;;;;;11.73;5.53;;;281.70;1792.00;;;;;;5137200;27;20023;-75
2021/01/24 09:40:34;;;;;;;13.48;6.68;;;281.80;1766.40;;;;;;5137186;27;20098;-74
2021/01/24 09:43:00;;;;;;;14.45;7.25;;;281.80;1792.00;;;;;;5135844;27;20471;-75
2021/01/24 09:45:26;;;;;;;11.98;6.70;;;281.80;1792.00;;;;;;5135774;27;20023;-74
2021/01/24 09:47:52;;;;;;;15.68;6.90;;;281.80;1792.00;;;;;;5135743;27;20562;-73
2021/01/24 09:50:22;;;;;;;14.50;7.32;;;281.80;1792.00;;;;;;5136988;27;20104;-75
2021/01/24 09:52:48;;;;;;;42.45;16.42;;;281.90;1792.00;;;;;;5135519;27;20034;-75
2021/01/24 09:55:14;;;;;;;32.85;14.85;;;281.90;1817.60;;;;;;5136488;27;20026;-75
2021/01/24 09:57:40;;;;;;;40.15;18.20;;;281.90;1817.60;;;;;;5134293;27;20023;-75
2021/01/24 10:00:07;;;;;;;25.00;11.43;;;281.90;1792.00;;;;;;5135743;27;20488;-74
2021/01/24 10:02:33;;;;;;;31.65;13.85;;;281.90;1817.60;;;;;;5134761;27;20026;-75
2021/01/24 10:04:59;;;;;;;24.23;11.65;;;282.00;1817.60;;;;;;5134655;27;20019;-75
2021/01/24 10:07:25;;;;;;;20.88;9.60;;;282.00;1817.60;;;;;;5134546;27;20030;-75
2021/01/24 10:09:51;;;;;;;18.63;8.20;;;282.00;1817.60;;;;;;5134792;27;20015;-74
2021/01/24 10:12:16;;;;;;;15.63;7.78;;;282.00;1817.60;;;;;;5136537;27;20030;-74
2021/01/24 10:14:42;;;;;;;22.50;8.02;;;282.00;1817.60;;;;;;5136849;27;20379;-75
2021/01/24 10:17:08;;;;;;;13.82;5.72;;;282.00;1792.00;;;;;;5135269;27;20471;-74
2021/01/24 10:19:34;;;;;;;16.73;7.07;;;281.90;1792.00;;;;;;5136481;27;20041;-75
2021/01/24 10:22:00;;;;;;;19.88;8.10;;;281.80;1792.00;;;;;;5136461;27;20019;-74
2021/01/24 10:24:26;;;;;;;20.35;8.35;;;281.90;1817.60;;;;;;5136387;27;20400;-75
2021/01/24 10:26:52;;;;;;;15.85;7.85;;;282.00;1843.20;;;;;;5136675;27;20038;-75
2021/01/24 10:29:18;;;;;;;15.85;7.88;;;282.00;1817.60;;;;;;5135033;27;20114;-75
2021/01/24 10:31:44;;;;;;;18.92;8.77;;;282.20;1817.60;;;;;;5134943;27;20035;-75
2021/01/24 10:34:10;;;;;;;16.30;8.52;;;282.50;1766.40;;;;;;5136243;27;20072;-74
2021/01/24 10:36:36;;;;;;;18.67;7.55;;;307.50;1766.40;;;;;;5134679;27;20023;-74
2021/01/24 10:39:02;;;;;;;14.32;7.45;;;307.70;1715.20;;;;;;5135891;27;20137;-75
2021/01/24 10:41:28;;;;;;;15.55;6.70;;;307.80;1715.20;;;;;;5134739;27;20084;-75
2021/01/24 10:43:54;;;;;;;12.27;5.82;;;332.80;1689.60;;;;;;5134654;27;20023;-74
2021/01/24 10:46:20;;;;;;;16.23;5.70;;;333.00;1689.60;;;;;;5134774;27;20383;-75
2021/01/24 10:48:46;;;;;;;11.25;4.45;;;333.30;1638.40;;;;;;5135929;27;20023;-75
2021/01/24 10:51:12;;;;;;;7.47;4.00;;;333.30;1612.80;;;;;;5135729;27;20596;-74
2021/01/24 10:53:38;;;;;;;13.95;5.85;;;333.40;1587.20;;;;;;5134538;27;20118;-74
2021/01/24 10:56:04;;;;;;;17.90;6.45;;;333.50;1587.20;;;;;;5136099;27;20387;-74
2021/01/24 10:58:30;;;;;;;10.50;4.50;;;333.30;1612.80;;;;;;5134424;27;20099;-74
2021/01/24 11:00:56;;;;;;;13.52;5.38;;;333.30;1612.80;;;;;;5134259;27;20083;-75
2021/01/24 11:03:22;;;;;;;15.80;5.30;;;333.20;1638.40;;;;;;5134292;27;20030;-74
2021/01/24 11:05:48;;;;;;;12.45;6.47;;;332.90;1689.60;;;;;;5134327;27;20023;-75
2021/01/24 11:08:13;;;;;;;15.90;6.38;;;308.00;1689.60;;;;;;5135555;27;20027;-74
2021/01/24 11:10:39;;;;;;;11.45;6.82;;;307.70;1715.20;;;;;;5134162;27;20027;-74
2021/01/24 11:13:05;;;;;;;13.02;6.70;;;307.70;1715.20;;;;;;5134198;27;20088;-75
2021/01/24 11:15:31;;;;;;;12.18;5.78;;;307.70;1740.80;;;;;;5135638;27;20099;-74
2021/01/24 11:17:57;;;;;;;13.75;4.97;;;307.70;1715.20;;;;;;5134047;27;20063;-75
2021/01/24 11:20:23;;;;;;;9.48;4.53;;;307.60;1740.80;;;;;;5135331;27;20568;-75
2021/01/24 11:22:49;;;;;;;10.07;4.85;;;307.60;1715.20;;;;;;5134037;27;20023;-75
2021/01/24 11:25:15;;;;;;;13.77;6.75;;;307.70;1715.20;;;;;;5133932;27;20071;-74
2021/01/24 11:27:41;;;;;;;14.93;6.25;;;307.70;1715.20;;;;;;5133824;27;20420;-75
2021/01/24 11:30:10;;;;;;;13.23;6.03;;;307.70;1715.20;;;;;;5134057;27;20023;-74
2021/01/24 11:32:37;;;;;;;14.30;6.72;;;307.70;1740.80;;;;;;5135108;27;20035;-75
2021/01/24 11:35:05;;;;;;;22.10;8.40;;;307.70;1715.20;;;;;;5133756;27;20018;-75
2021/01/24 11:37:31;;;;;;;25.00;13.52;;;307.70;1740.80;;;;;;5133715;27;20023;-75
2021/01/24 11:39:56;;;;;;;22.33;12.57;;;307.70;1740.80;;;;;;5133614;27;20482;-74
2021/01/24 11:42:23;;;;;;;29.00;14.57;;;307.60;1740.80;;;;;;5134930;27;20019;-74
2021/01/24 11:44:49;;;;;;;23.40;10.45;;;307.60;1740.80;;;;;;5133564;27;20027;-75
2021/01/24 11:47:14;;;;;;;20.40;8.82;;;307.60;1740.80;;;;;;5134818;27;20026;-72
2021/01/24 11:49:40;;;;;;;28.10;12.30;;;307.60;1740.80;;;;;;5132728;27;20433;-72
2021/01/24 11:52:06;;;;;;;33.83;16.75;;;307.70;1740.80;;;;;;5134918;27;20110;-72
2021/01/24 11:54:32;;;;;;;22.45;11.35;;;307.80;1715.20;;;;;;5134674;27;20031;-72
2021/01/24 11:56:58;;;;;;;11.25;4.50;;;307.70;1689.60;;;;;;5133400;27;20031;-72
2021/01/24 11:59:24;;;;;;;21.35;9.52;;;307.60;1689.60;;;;;;5132715;27;20403;-72
2021/01/24 12:01:49;;;;;;;52.72;27.10;;;307.50;1715.20;;;;;;5134691;27;20054;-72
2021/01/24 12:04:15;;;;;;;71.38;30.25;;;307.60;1740.80;;;;;;5134867;27;20524;-73
2021/01/24 12:06:41;;;;;;;67.13;29.90;;;307.50;1715.20;;;;;;5134604;27;20042;-72
2021/01/24 12:09:07;;;;;;;53.17;22.65;;;307.60;1740.80;;;;;;5134807;27;20046;-72
2021/01/24 12:11:35;;;;;;;35.40;17.58;;;307.60;1740.80;;;;;;5133111;27;20132;-72